Time;durP1;ratioP1;P1;durP2;ratioP2;P2;SDS_P1;SDS_P2;PMS_P1;PMS_P2;Temp;Humidity;BMP_temperature;BMP_pressure;BME280_temperature;BME280_humidity;BME280_pressure;Samples;Min_cycle;Max_cycle;Signal;HPM_P1;HPM_P2
2021/05/15 00:00:20;;;;;;;7.57;4.60;;;15.40;84.40;;;;;;5094953;28;20028;-74
2021/05/15 00:02:46;;;;;;;7.72;4.32;;;15.40;84.60;;;;;;5109707;28;20012;-74
2021/05/15 00:05:12;;;;;;;8.90;4.40;;;15.30;84.70;;;;;;5095193;28;20103;-74
2021/05/15 00:07:37;;;;;;;6.47;4.28;;;15.30;85.00;;;;;;5094556;28;20119;-74
2021/05/15 00:10:07;;;;;;;7.10;4.60;;;15.30;85.20;;;;;;5094891;28;20450;-74
2021/05/15 00:12:33;;;;;;;7.82;4.50;;;15.20;85.50;;;;;;5110250;27;20028;-74
2021/05/15 00:14:59;;;;;;;7.95;5.28;;;15.20;85.90;;;;;;5092881;28;20048;-74
2021/05/15 00:17:26;;;;;;;7.50;4.32;;;15.10;86.20;;;;;;5093518;28;20054;-74
2021/05/15 00:19:52;;;;;;;11.20;4.60;;;15.10;86.70;;;;;;5094666;28;20026;-74
2021/05/15 00:22:17;;;;;;;8.13;5.05;;;15.10;86.50;;;;;;5092094;28;20461;-74
2021/05/15 00:24:43;;;;;;;8.43;5.90;;;15.00;87.00;;;;;;5075351;28;20031;-73
2021/05/15 00:27:09;;;;;;;6.80;4.82;;;15.00;87.10;;;;;;5078712;28;20086;-74
2021/05/15 00:29:34;;;;;;;9.77;5.20;;;14.90;87.30;;;;;;5076841;28;20157;-74
2021/05/15 00:32:00;;;;;;;8.70;5.10;;;14.90;87.60;;;;;;5092912;28;20028;-74
2021/05/15 00:34:26;;;;;;;8.82;5.30;;;14.90;87.90;;;;;;5082257;28;20031;-78
2021/05/15 00:36:51;;;;;;;8.68;5.10;;;14.90;88.20;;;;;;5080820;28;20467;-73
2021/05/15 00:39:19;;;;;;;7.82;5.15;;;14.90;88.20;;;;;;5073631;28;20028;-73
2021/05/15 00:41:45;;;;;;;8.07;5.32;;;14.90;88.20;;;;;;5073660;28;20028;-74
2021/05/15 00:44:28;;;;;;;9.02;5.20;;;14.90;88.20;;;;;;5090368;28;20017;-74
2021/05/15 00:46:55;;;;;;;10.18;5.65;;;14.90;88.40;;;;;;5075591;28;20055;-73
2021/05/15 00:49:20;;;;;;;9.85;5.90;;;14.80;88.50;;;;;;5073294;28;20459;-74
2021/05/15 00:51:46;;;;;;;10.68;5.57;;;14.80;88.60;;;;;;5074775;28;20020;-74
2021/05/15 00:54:12;;;;;;;10.20;5.60;;;14.80;88.70;;;;;;5074625;28;20415;-74
2021/05/15 00:56:39;;;;;;;7.55;5.32;;;14.80;88.90;;;;;;5071838;28;20035;-74
2021/05/15 00:59:05;;;;;;;9.27;5.57;;;14.70;89.20;;;;;;5073497;28;20031;-74
2021/05/15 01:01:31;;;;;;;10.07;5.68;;;14.70;89.50;;;;;;5073494;28;20020;-73
2021/05/15 01:03:57;;;;;;;8.73;5.28;;;14.70;89.70;;;;;;5081244;28;20112;-74
2021/05/15 01:06:23;;;;;;;8.63;5.68;;;14.70;89.70;;;;;;5073416;28;20075;-74
2021/05/15 01:08:49;;;;;;;9.57;5.88;;;14.60;90.00;;;;;;5071949;28;20036;-74
2021/05/15 01:11:19;;;;;;;10.13;6.22;;;14.60;90.20;;;;;;5073069;28;20020;-74
2021/05/15 01:13:53;;;;;;;9.57;6.38;;;14.60;90.20;;;;;;5083676;28;20028;-74
2021/05/15 01:16:19;;;;;;;10.32;6.40;;;14.50;90.30;;;;;;5073349;28;20115;-74
2021/05/15 01:18:45;;;;;;;11.23;6.95;;;14.50;90.40;;;;;;5072832;28;20864;-74
2021/05/15 01:21:12;;;;;;;11.45;7.10;;;14.50;90.50;;;;;;5073277;28;20471;-74
2021/05/15 01:23:37;;;;;;;14.07;7.47;;;14.40;90.60;;;;;;5071705;28;20493;-74
2021/05/15 01:26:18;;;;;;;12.07;7.57;;;14.40;90.60;;;;;;5079934;28;20033;-74
2021/05/15 01:28:45;;;;;;;14.52;7.82;;;14.40;90.80;;;;;;5072826;28;20020;-74
2021/05/15 01:31:12;;;;;;;9.95;7.32;;;14.40;90.90;;;;;;5071839;28;20056;-74
2021/05/15 01:33:37;;;;;;;17.30;8.05;;;14.40;90.90;;;;;;5074513;28;20028;-74
2021/05/15 01:36:05;;;;;;;15.05;7.95;;;14.40;91.00;;;;;;5073350;28;20017;-74
2021/05/15 01:38:31;;;;;;;11.77;8.57;;;14.40;91.20;;;;;;5075507;28;20384;-75
2021/05/15 01:41:08;;;;;;;13.82;8.45;;;14.40;91.10;;;;;;5071914;28;20073;-74
2021/05/15 01:43:35;;;;;;;12.57;7.95;;;14.40;91.40;;;;;;5076639;28;20021;-74
2021/05/15 01:46:02;;;;;;;17.58;8.30;;;14.40;91.30;;;;;;5071716;28;20081;-74
2021/05/15 01:48:27;;;;;;;12.68;8.25;;;14.40;91.30;;;;;;5072514;28;20033;-75
2021/05/15 01:51:00;;;;;;;15.05;8.55;;;14.30;91.30;;;;;;5072568;28;20026;-75
2021/05/15 01:53:27;;;;;;;13.45;8.45;;;14.30;91.30;;;;;;5079600;28;20025;-74
2021/05/15 01:55:54;;;;;;;12.02;7.63;;;14.30;91.30;;;;;;5071484;28;20020;-74
2021/05/15 01:58:20;;;;;;;12.00;8.20;;;14.20;91.40;;;;;;5081166;28;20029;-73
2021/05/15 02:00:46;;;;;;;17.02;8.65;;;14.20;91.40;;;;;;5072462;28;20478;-73
2021/05/15 02:03:12;;;;;;;16.58;8.73;;;14.20;91.40;;;;;;5072867;28;20103;-73
2021/05/15 02:05:38;;;;;;;13.60;8.52;;;14.20;91.50;;;;;;5071529;28;20040;-74
2021/05/15 02:08:04;;;;;;;15.30;8.50;;;14.10;91.60;;;;;;5072722;28;20099;-73
2021/05/15 02:10:30;;;;;;;14.57;8.43;;;14.10;91.80;;;;;;5085684;28;20482;-74
2021/05/15 02:12:56;;;;;;;13.70;8.00;;;14.10;91.80;;;;;;5086968;28;20021;-74
2021/05/15 02:15:22;;;;;;;15.52;8.57;;;14.10;92.00;;;;;;5082325;28;20044;-74
2021/05/15 02:17:47;;;;;;;12.70;7.10;;;14.10;92.10;;;;;;5091781;28;20032;-74
2021/05/15 02:20:13;;;;;;;15.30;7.75;;;14.10;92.10;;;;;;5091774;28;20458;-74
2021/05/15 02:22:39;;;;;;;10.45;7.05;;;14.10;92.20;;;;;;5091717;28;20051;-74
2021/05/15 02:25:05;;;;;;;13.10;7.72;;;14.00;92.20;;;;;;5091935;28;20039;-74
2021/05/15 02:27:31;;;;;;;13.35;8.30;;;14.00;92.30;;;;;;5091919;28;20032;-74
2021/05/15 02:29:57;;;;;;;12.48;8.13;;;14.00;92.40;;;;;;5093057;28;20027;-74
2021/05/15 02:32:22;;;;;;;18.83;8.45;;;14.00;92.50;;;;;;5093099;28;20051;-74
2021/05/15 02:34:48;;;;;;;15.57;8.70;;;14.00;92.50;;;;;;5093002;28;20086;-74
2021/05/15 02:37:14;;;;;;;16.92;8.50;;;13.90;92.60;;;;;;5093693;28;20131;-74
2021/05/15 02:39:39;;;;;;;12.77;7.68;;;14.00;92.90;;;;;;5098205;28;20031;-74
2021/05/15 02:42:05;;;;;;;12.68;7.78;;;14.10;93.20;;;;;;5095607;28;21346;-74
2021/05/15 02:44:31;;;;;;;14.70;7.68;;;14.10;92.80;;;;;;5080398;28;20146;-74
2021/05/15 02:46:57;;;;;;;16.13;7.70;;;14.10;92.70;;;;;;5080433;28;20025;-74
2021/05/15 02:49:23;;;;;;;12.10;7.88;;;14.10;92.60;;;;;;5079981;28;20024;-74
2021/05/15 02:51:48;;;;;;;11.57;7.10;;;14.10;92.80;;;;;;5081067;28;20099;-74
2021/05/15 02:54:14;;;;;;;9.32;6.32;;;14.30;93.30;;;;;;5082097;28;20046;-74
2021/05/15 02:56:40;;;;;;;13.27;6.68;;;14.40;93.50;;;;;;5085480;28;20404;-75
2021/05/15 02:59:05;;;;;;;12.82;6.93;;;14.70;93.50;;;;;;5074618;28;21296;-74
2021/05/15 03:01:31;;;;;;;11.40;5.55;;;14.90;93.30;;;;;;5086159;28;20021;-74
2021/05/15 03:03:57;;;;;;;9.80;6.38;;;15.10;93.00;;;;;;5075381;28;20528;-75
2021/05/15 03:06:22;;;;;;;8.93;5.75;;;15.40;92.50;;;;;;5074778;28;20027;-75
2021/05/15 03:08:48;;;;;;;12.68;6.60;;;15.60;91.80;;;;;;5075703;28;20083;-75
2021/05/15 03:11:14;;;;;;;8.98;5.95;;;15.80;91.00;;;;;;5075402;28;20024;-74
2021/05/15 03:13:39;;;;;;;8.38;5.45;;;15.90;90.50;;;;;;5075660;28;20036;-74
2021/05/15 03:16:05;;;;;;;10.43;6.10;;;16.10;90.10;;;;;;5073995;28;20052;-75
2021/05/15 03:18:31;;;;;;;9.65;6.10;;;16.20;89.00;;;;;;5075066;28;20454;-75
2021/05/15 03:20:57;;;;;;;8.25;5.68;;;16.30;88.40;;;;;;5074245;28;20040;-75
2021/05/15 03:23:23;;;;;;;11.15;5.07;;;16.50;87.10;;;;;;5075953;28;20106;-74
2021/05/15 03:25:49;;;;;;;9.40;5.32;;;16.70;86.20;;;;;;5074067;28;20028;-74
2021/05/15 03:28:14;;;;;;;8.55;5.60;;;16.80;85.50;;;;;;5075085;28;20527;-75
2021/05/15 03:30:41;;;;;;;8.93;5.28;;;16.90;83.90;;;;;;5074685;28;20016;-74
2021/05/15 03:33:06;;;;;;;8.30;5.50;;;17.10;83.20;;;;;;5073808;28;20032;-75
2021/05/15 03:35:32;;;;;;;7.22;5.20;;;17.20;82.70;;;;;;5074944;28;20025;-72
2021/05/15 03:37:58;;;;;;;8.73;5.75;;;17.40;82.70;;;;;;5074260;28;20479;-75
2021/05/15 03:40:25;;;;;;;6.80;5.45;;;17.70;81.80;;;;;;5074705;28;20905;-79
2021/05/15 03:42:54;;;;;;;8.95;5.40;;;17.90;80.50;;;;;;5075087;28;20116;-73
2021/05/15 03:45:20;;;;;;;6.72;5.10;;;18.10;80.10;;;;;;5078207;28;20056;-73
2021/05/15 03:47:46;;;;;;;8.80;5.30;;;18.50;79.70;;;;;;5085690;28;20031;-76
2021/05/15 03:50:12;;;;;;;10.65;5.40;;;18.60;76.70;;;;;;5079166;28;20020;-77
2021/05/15 03:52:38;;;;;;;8.95;5.60;;;18.70;76.20;;;;;;5085788;28;20378;-76
2021/05/15 03:55:04;;;;;;;9.05;5.75;;;18.80;75.60;;;;;;5090363;28;20028;-75
2021/05/15 03:57:30;;;;;;;9.40;5.93;;;19.00;74.60;;;;;;5090428;28;20418;-75
2021/05/15 03:59:56;;;;;;;8.65;5.88;;;19.20;74.60;;;;;;5083864;28;20073;-75
2021/05/15 04:02:23;;;;;;;10.60;5.82;;;19.40;73.80;;;;;;5087372;28;20036;-78
2021/05/15 04:04:52;;;;;;;10.68;5.60;;;19.60;72.80;;;;;;5083496;28;20029;-75
2021/05/15 04:07:18;;;;;;;8.05;5.50;;;19.70;71.20;;;;;;5095341;28;20038;-76
2021/05/15 04:09:44;;;;;;;11.77;5.57;;;19.70;71.10;;;;;;5093221;28;20032;-76
2021/05/15 04:12:11;;;;;;;11.60;5.90;;;19.90;71.10;;;;;;5082711;28;20025;-75
2021/05/15 04:19:31;;;;;;;9.55;5.55;;;20.70;69.70;;;;;;5089326;28;20366;-74
2021/05/15 04:21:57;;;;;;;10.48;5.95;;;21.10;69.10;;;;;;5082626;28;20024;-75
2021/05/15 04:24:25;;;;;;;10.45;5.80;;;21.40;67.70;;;;;;5086542;28;20104;-75
2021/05/15 04:26:55;;;;;;;9.45;5.75;;;21.70;66.40;;;;;;5076941;28;20027;-76
2021/05/15 04:29:22;;;;;;;7.53;5.60;;;21.90;65.30;;;;;;5084071;28;20078;-76
2021/05/15 04:31:48;;;;;;;11.30;5.65;;;22.10;64.70;;;;;;5106346;28;20023;-75
2021/05/15 04:34:14;;;;;;;8.80;5.57;;;22.30;64.10;;;;;;5087237;28;20086;-73
2021/05/15 04:36:40;;;;;;;9.80;5.47;;;22.60;63.10;;;;;;5105866;28;20028;-75
2021/05/15 04:39:06;;;;;;;22.40;9.52;;;22.70;62.30;;;;;;5086579;28;20040;-75
2021/05/15 04:41:32;;;;;;;22.67;10.85;;;22.90;62.40;;;;;;5099372;28;20103;-74
2021/05/15 04:43:58;;;;;;;26.70;11.77;;;23.30;61.60;;;;;;5099768;28;20048;-75
2021/05/15 04:46:23;;;;;;;30.30;14.82;;;23.70;61.30;;;;;;5096802;28;20016;-75
2021/05/15 04:48:49;;;;;;;22.08;11.05;;;24.10;60.10;;;;;;5095017;28;20035;-75
2021/05/15 04:51:15;;;;;;;16.38;8.63;;;24.20;58.80;;;;;;5090041;28;20067;-74
2021/05/15 04:53:40;;;;;;;23.80;10.23;;;24.20;57.40;;;;;;5087184;28;20421;-75
2021/05/15 04:56:09;;;;;;;17.75;9.57;;;24.10;57.10;;;;;;5092631;28;20097;-75
2021/05/15 04:58:35;;;;;;;30.67;13.20;;;24.40;57.10;;;;;;5090399;28;20031;-75
2021/05/15 05:01:03;;;;;;;26.35;12.82;;;24.50;56.40;;;;;;5091445;28;20028;-75
2021/05/15 05:03:28;;;;;;;17.40;8.60;;;24.80;56.60;;;;;;5089971;28;20035;-75
2021/05/15 05:05:54;;;;;;;19.15;8.75;;;25.00;56.00;;;;;;5089716;28;20028;-75
2021/05/15 05:08:20;;;;;;;24.92;10.65;;;25.40;55.50;;;;;;5092064;28;20039;-75
2021/05/15 05:10:45;;;;;;;25.67;11.60;;;25.50;54.10;;;;;;5084184;28;20089;-75
2021/05/15 05:13:11;;;;;;;57.00;24.23;;;25.40;53.20;;;;;;5091412;28;20393;-74
2021/05/15 05:15:37;;;;;;;59.08;23.05;;;25.10;53.10;;;;;;5086808;28;20537;-74
2021/05/15 05:18:02;;;;;;;55.58;23.50;;;24.80;53.60;;;;;;5091498;28;20048;-74
2021/05/15 05:20:28;;;;;;;52.65;19.73;;;24.80;53.90;;;;;;5089385;28;20028;-74
2021/05/15 05:22:53;;;;;;;60.10;23.60;;;24.90;54.00;;;;;;5081896;28;21120;-74
2021/05/15 05:25:19;;;;;;;34.28;15.23;;;25.00;54.00;;;;;;5086213;28;20024;-75
2021/05/15 05:27:47;;;;;;;46.63;18.70;;;25.10;53.40;;;;;;5090659;28;20054;-75
2021/05/15 05:30:14;;;;;;;41.33;17.92;;;25.20;53.30;;;;;;5091206;28;20036;-75
2021/05/15 05:32:41;;;;;;;56.38;22.98;;;25.50;53.30;;;;;;5091463;28;20039;-73
2021/05/15 05:35:07;;;;;;;52.10;19.55;;;25.60;52.80;;;;;;5077416;28;20429;-73
2021/05/15 05:37:33;;;;;;;51.30;17.63;;;25.80;52.50;;;;;;5081676;28;20044;-74
2021/05/15 05:39:58;;;;;;;44.95;17.75;;;25.80;52.30;;;;;;5082964;28;20390;-75
2021/05/15 05:42:24;;;;;;;49.42;18.42;;;25.80;50.90;;;;;;5077061;28;20359;-74
2021/05/15 05:44:50;;;;;;;33.25;13.13;;;25.60;51.80;;;;;;5077502;28;20020;-74
2021/05/15 05:47:15;;;;;;;43.72;14.45;;;25.70;52.00;;;;;;5078643;28;20537;-74
2021/05/15 05:49:41;;;;;;;35.78;14.90;;;25.80;51.90;;;;;;5093934;28;20025;-76
2021/05/15 05:52:07;;;;;;;42.65;13.80;;;26.10;51.50;;;;;;5075896;28;20020;-72
2021/05/15 05:54:32;;;;;;;25.60;10.35;;;26.20;51.20;;;;;;5087242;28;20017;-73
2021/05/15 05:56:58;;;;;;;19.50;8.90;;;26.40;50.60;;;;;;5076983;28;20031;-73
2021/05/15 05:59:24;;;;;;;28.80;11.68;;;26.50;49.90;;;;;;5076565;28;20529;-73
2021/05/15 06:01:49;;;;;;;30.75;10.95;;;26.50;49.90;;;;;;5078493;28;20030;-73
2021/05/15 06:04:15;;;;;;;39.03;13.90;;;26.90;50.60;;;;;;5091493;28;20020;-74
2021/05/15 06:06:41;;;;;;;30.08;10.98;;;27.30;50.00;;;;;;5086335;28;20066;-73
2021/05/15 06:09:06;;;;;;;39.78;14.50;;;27.40;48.00;;;;;;5090766;28;20063;-73
2021/05/15 06:11:32;;;;;;;65.35;21.05;;;27.30;48.30;;;;;;5084443;28;20097;-77
2021/05/15 06:13:58;;;;;;;29.70;9.50;;;27.70;48.40;;;;;;5094139;28;20036;-78
2021/05/15 06:16:23;;;;;;;48.53;14.38;;;27.80;47.60;;;;;;5098063;28;20122;-75
2021/05/15 06:18:49;;;;;;;15.73;7.40;;;28.00;47.40;;;;;;5098184;28;20124;-78
2021/05/15 06:21:15;;;;;;;23.75;9.55;;;28.10;46.70;;;;;;5092002;28;20058;-72
2021/05/15 06:23:40;;;;;;;40.33;11.35;;;28.10;46.00;;;;;;5100809;28;20115;-78
2021/05/15 06:26:09;;;;;;;33.35;9.07;;;28.10;46.50;;;;;;5105196;28;20024;-77
2021/05/15 06:28:38;;;;;;;33.97;10.02;;;28.10;45.90;;;;;;5106185;28;20011;-77
2021/05/15 06:31:05;;;;;;;33.75;9.25;;;28.10;46.50;;;;;;5104835;28;20059;-74
2021/05/15 06:33:32;;;;;;;28.38;8.95;;;28.10;45.60;;;;;;5093854;28;20024;-76
2021/05/15 06:35:58;;;;;;;13.98;5.25;;;28.00;45.50;;;;;;5084125;28;20029;-72
2021/05/15 06:38:23;;;;;;;34.67;8.40;;;28.10;45.30;;;;;;5091260;28;20040;-73
2021/05/15 06:40:49;;;;;;;19.77;5.90;;;28.00;45.80;;;;;;5102406;28;20024;-71
2021/05/15 06:43:17;;;;;;;10.70;5.00;;;28.20;46.00;;;;;;5096902;28;20044;-68
2021/05/15 06:45:43;;;;;;;11.95;5.10;;;28.50;45.40;;;;;;5088919;28;20020;-75
2021/05/15 06:48:09;;;;;;;14.23;5.68;;;28.70;45.00;;;;;;5094382;28;20043;-76
2021/05/15 06:50:34;;;;;;;27.30;8.60;;;28.70;44.50;;;;;;5091284;28;20394;-76
2021/05/15 06:53:00;;;;;;;34.85;12.68;;;28.30;43.80;;;;;;5094846;28;20024;-76
2021/05/15 06:55:26;;;;;;;15.10;6.70;;;27.70;44.30;;;;;;5078809;28;20035;-76
2021/05/15 06:57:53;;;;;;;13.38;5.43;;;27.40;44.60;;;;;;5082034;28;20535;-76
2021/05/15 07:00:19;;;;;;;16.23;6.68;;;27.40;44.90;;;;;;5093526;28;20393;-76
2021/05/15 07:02:45;;;;;;;11.90;4.32;;;27.30;44.50;;;;;;5092699;28;20085;-77
2021/05/15 07:05:11;;;;;;;19.27;7.55;;;27.10;44.50;;;;;;5093634;28;20424;-76
2021/05/15 07:07:37;;;;;;;12.93;5.40;;;27.10;45.10;;;;;;5093334;28;20362;-77
2021/05/15 07:10:03;;;;;;;5.68;2.50;;;27.10;45.30;;;;;;5095736;28;20027;-76
2021/05/15 07:12:29;;;;;;;4.20;2.20;;;27.10;44.90;;;;;;5093166;28;20030;-77
2021/05/15 07:14:54;;;;;;;6.88;2.38;;;27.10;44.50;;;;;;5094247;28;20040;-76
2021/05/15 07:17:25;;;;;;;5.95;1.85;;;26.90;44.60;;;;;;5093100;28;20039;-75
2021/05/15 07:19:54;;;;;;;5.82;2.35;;;26.80;44.90;;;;;;5095172;28;20023;-75
2021/05/15 07:22:25;;;;;;;16.70;6.70;;;26.90;44.90;;;;;;5092160;28;20024;-76
2021/05/15 07:24:55;;;;;;;9.45;2.92;;;27.20;45.00;;;;;;5088487;28;20469;-75
2021/05/15 07:27:21;;;;;;;11.93;3.05;;;27.40;44.40;;;;;;5087661;28;20138;-75
2021/05/15 07:29:54;;;;;;;19.42;4.20;;;27.40;43.90;;;;;;5094887;28;20077;-75
2021/05/15 07:32:24;;;;;;;15.07;2.95;;;27.60;44.60;;;;;;5075330;28;20032;-76
2021/05/15 07:34:50;;;;;;;3.25;1.52;;;28.00;44.50;;;;;;5073782;28;20563;-76
2021/05/15 07:37:16;;;;;;;14.07;3.25;;;28.30;43.40;;;;;;5079016;28;20064;-75
2021/05/15 07:39:42;;;;;;;20.30;5.65;;;28.40;43.90;;;;;;5083426;28;20059;-76
2021/05/15 07:42:09;;;;;;;7.50;1.80;;;28.60;43.60;;;;;;5088014;28;20024;-75
2021/05/15 07:44:35;;;;;;;5.70;2.75;;;28.70;43.30;;;;;;5090276;28;20021;-76
2021/05/15 07:47:01;;;;;;;12.02;2.58;;;29.20;43.00;;;;;;5078862;28;20119;-76
2021/05/15 07:49:30;;;;;;;12.15;2.50;;;29.70;42.60;;;;;;5082677;28;20039;-76
2021/05/15 07:51:56;;;;;;;12.63;2.63;;;29.80;42.10;;;;;;5080620;28;20548;-75
2021/05/15 07:54:23;;;;;;;7.93;2.40;;;30.20;42.20;;;;;;5080780;28;20115;-75
2021/05/15 07:56:50;;;;;;;9.80;3.15;;;30.60;40.70;;;;;;5082292;28;20032;-76
2021/05/15 07:59:16;;;;;;;20.90;6.93;;;30.30;40.20;;;;;;5093386;28;20056;-76
2021/05/15 08:01:42;;;;;;;10.18;4.80;;;29.90;40.00;;;;;;5094336;28;20035;-76
2021/05/15 08:04:08;;;;;;;4.95;2.45;;;29.60;40.60;;;;;;5092945;28;20487;-79
2021/05/15 08:06:34;;;;;;;26.92;10.63;;;29.50;40.80;;;;;;5076540;28;20099;-77
2021/05/15 08:09:00;;;;;;;21.42;8.05;;;29.30;40.90;;;;;;5075582;28;20054;-77
2021/05/15 08:11:26;;;;;;;22.65;6.63;;;29.20;41.20;;;;;;5110496;28;20485;-77
2021/05/15 08:13:52;;;;;;;8.85;3.00;;;29.10;41.60;;;;;;5100234;28;20028;-77
2021/05/15 08:16:20;;;;;;;5.80;2.17;;;29.10;41.80;;;;;;5098894;28;20090;-76
2021/05/15 08:18:46;;;;;;;11.57;1.40;;;29.50;41.60;;;;;;5101614;28;20417;-76
2021/05/15 08:21:11;;;;;;;3.08;1.25;;;29.50;40.20;;;;;;5085446;28;20029;-76
2021/05/15 08:23:39;;;;;;;6.72;2.40;;;29.60;39.60;;;;;;5104179;28;20020;-75
2021/05/15 08:26:07;;;;;;;7.35;2.80;;;29.60;39.90;;;;;;5102480;28;20052;-76
2021/05/15 08:28:34;;;;;;;3.90;1.80;;;29.40;39.60;;;;;;5095800;28;20474;-76
2021/05/15 08:30:59;;;;;;;15.55;5.93;;;29.30;39.70;;;;;;5094958;28;20020;-76
2021/05/15 08:33:25;;;;;;;12.65;3.72;;;29.20;39.80;;;;;;5077149;28;20051;-76
2021/05/15 08:35:51;;;;;;;8.82;2.67;;;29.20;39.50;;;;;;5072962;28;20021;-76
2021/05/15 08:38:17;;;;;;;4.53;1.48;;;29.10;39.70;;;;;;5087138;28;20036;-75
2021/05/15 08:40:43;;;;;;;5.80;1.80;;;29.10;39.00;;;;;;5088799;28;20067;-75
2021/05/15 08:43:09;;;;;;;14.43;5.50;;;29.00;39.40;;;;;;5091063;28;20441;-75
2021/05/15 08:45:35;;;;;;;10.68;2.60;;;29.20;40.60;;;;;;5078037;28;20426;-75
2021/05/15 08:48:04;;;;;;;13.10;3.42;;;29.30;39.70;;;;;;5085233;28;20039;-76
2021/05/15 08:50:31;;;;;;;23.77;17.15;;;29.40;39.50;;;;;;5074658;28;20036;-76
2021/05/15 08:52:59;;;;;;;16.65;5.40;;;29.80;40.00;;;;;;5093483;28;20458;-75
2021/05/15 08:55:30;;;;;;;9.52;3.78;;;30.40;40.10;;;;;;5078796;28;20496;-76
2021/05/15 08:57:58;;;;;;;8.38;2.78;;;30.80;38.30;;;;;;5089686;28;20035;-77
2021/05/15 09:00:36;;;;;;;4.78;1.50;;;31.00;39.20;;;;;;5072003;28;20021;-79
2021/05/15 09:03:06;;;;;;;5.57;1.42;;;31.60;39.10;;;;;;5080194;28;20021;-75
2021/05/15 09:05:34;;;;;;;2.47;1.40;;;32.30;38.40;;;;;;5076387;28;20031;-73
2021/05/15 09:08:01;;;;;;;7.65;2.55;;;33.00;37.60;;;;;;5086756;28;20055;-73
2021/05/15 09:10:32;;;;;;;4.65;1.30;;;33.40;37.60;;;;;;5087875;28;20050;-74
2021/05/15 09:13:25;;;;;;;4.55;1.35;;;33.90;36.90;;;;;;5086676;28;20036;-74
2021/05/15 09:16:01;;;;;;;2.25;1.10;;;34.30;36.20;;;;;;5079328;28;20482;-75
2021/05/15 09:18:40;;;;;;;3.03;1.08;;;34.20;35.90;;;;;;5080042;28;20036;-77
2021/05/15 09:21:11;;;;;;;4.55;1.80;;;34.40;35.50;;;;;;5084384;28;20020;-74
2021/05/15 09:23:39;;;;;;;3.47;1.00;;;34.00;35.10;;;;;;5079641;28;20052;-74
2021/05/15 09:26:16;;;;;;;2.72;1.23;;;33.80;35.60;;;;;;5085953;28;20020;-74
2021/05/15 09:28:47;;;;;;;4.38;2.05;;;34.00;35.60;;;;;;5079927;28;20924;-74
2021/05/15 09:31:32;;;;;;;2.28;1.10;;;34.10;35.80;;;;;;5085290;28;20088;-74
2021/05/15 09:34:06;;;;;;;4.30;0.90;;;34.40;35.60;;;;;;5089661;28;20036;-74
2021/05/15 09:36:32;;;;;;;0.98;0.88;;;33.90;35.00;;;;;;5090376;28;20040;-73
2021/05/15 09:38:59;;;;;;;3.10;1.00;;;33.20;35.50;;;;;;5086231;28;20393;-73
2021/05/15 09:41:35;;;;;;;2.15;1.15;;;32.90;36.30;;;;;;5090146;28;20028;-74
2021/05/15 09:44:02;;;;;;;1.83;1.10;;;33.20;36.30;;;;;;5078266;28;20398;-73
2021/05/15 09:46:29;;;;;;;2.80;1.05;;;33.00;35.20;;;;;;5090095;28;20028;-77
2021/05/15 09:48:56;;;;;;;2.42;1.02;;;32.30;36.00;;;;;;5090764;28;20028;-73
2021/05/15 09:51:22;;;;;;;1.13;0.73;;;32.30;36.80;;;;;;5088026;28;20033;-74
2021/05/15 09:53:48;;;;;;;2.05;1.10;;;32.60;36.10;;;;;;5087128;28;20028;-75
2021/05/15 09:56:25;;;;;;;5.55;0.90;;;32.80;35.40;;;;;;5085381;28;20048;-74
2021/05/15 09:58:52;;;;;;;7.45;1.73;;;33.00;35.90;;;;;;5092865;28;20071;-74
2021/05/15 10:01:17;;;;;;;5.57;1.48;;;33.30;35.80;;;;;;5089126;28;20031;-73
2021/05/15 10:03:47;;;;;;;2.85;0.93;;;33.70;35.30;;;;;;5091674;28;20020;-73
2021/05/15 10:06:16;;;;;;;20.50;2.78;;;34.20;35.00;;;;;;5089497;28;20056;-73
2021/05/15 10:08:43;;;;;;;6.85;1.30;;;34.10;34.00;;;;;;5088390;28;20056;-72
2021/05/15 10:11:10;;;;;;;2.83;0.88;;;33.80;34.40;;;;;;5089647;28;20035;-71
2021/05/15 10:13:37;;;;;;;4.15;1.00;;;33.80;34.50;;;;;;5086448;28;20027;-73
2021/05/15 10:16:04;;;;;;;2.63;1.00;;;33.70;34.30;;;;;;5079765;28;20040;-73
2021/05/15 10:18:31;;;;;;;2.38;1.35;;;33.00;34.00;;;;;;5085574;28;20086;-72
2021/05/15 10:20:57;;;;;;;9.65;2.28;;;32.80;35.40;;;;;;5087233;28;20024;-73
2021/05/15 10:23:27;;;;;;;17.13;2.58;;;33.00;34.90;;;;;;5092229;28;20024;-72
2021/05/15 10:26:21;;;;;;;46.13;6.35;;;33.00;34.90;;;;;;5077339;28;20463;-72
2021/05/15 10:29:02;;;;;;;14.30;3.10;;;32.90;35.00;;;;;;5076503;28;20024;-71
2021/05/15 10:31:42;;;;;;;5.30;1.75;;;32.60;35.10;;;;;;5090056;28;20027;-70
2021/05/15 10:34:09;;;;;;;2.85;1.10;;;32.10;35.30;;;;;;5079337;28;20039;-70
2021/05/15 10:36:49;;;;;;;51.42;13.57;;;31.70;35.60;;;;;;5077492;28;20500;-70
2021/05/15 10:39:30;;;;;;;15.15;2.40;;;31.70;37.00;;;;;;5072199;28;20040;-70
2021/05/15 10:41:58;;;;;;;18.13;2.58;;;32.30;35.80;;;;;;5075373;28;20120;-71
2021/05/15 10:44:23;;;;;;;4.22;1.48;;;32.60;34.90;;;;;;5072356;28;20025;-70
2021/05/15 10:46:51;;;;;;;4.45;1.30;;;32.30;34.50;;;;;;5070770;28;20032;-70
2021/05/15 10:49:17;;;;;;;10.57;2.33;;;31.40;34.90;;;;;;5072411;28;20492;-70
2021/05/15 10:51:46;;;;;;;3.42;1.30;;;30.60;36.50;;;;;;5071328;28;20112;-70
2021/05/15 10:54:15;;;;;;;5.25;1.80;;;31.00;37.30;;;;;;5072379;28;20538;-70
2021/05/15 10:56:41;;;;;;;6.65;2.22;;;31.80;36.70;;;;;;5070656;28;20043;-71
2021/05/15 10:59:16;;;;;;;3.63;1.00;;;32.00;35.70;;;;;;5088242;28;20562;-70
2021/05/15 11:01:47;;;;;;;12.27;1.90;;;32.20;36.00;;;;;;5075886;28;20402;-70
2021/05/15 11:04:23;;;;;;;4.53;0.80;;;32.60;36.10;;;;;;5075749;28;20134;-70
2021/05/15 11:07:09;;;;;;;4.45;0.85;;;32.70;34.80;;;;;;5074090;28;20029;-70
2021/05/15 11:09:50;;;;;;;2.10;1.10;;;31.50;34.80;;;;;;5074436;28;20031;-70
2021/05/15 11:12:17;;;;;;;1.70;0.80;;;30.70;35.70;;;;;;5075829;28;20095;-70
2021/05/15 11:14:45;;;;;;;2.10;0.82;;;30.20;36.80;;;;;;5075062;28;20053;-70
2021/05/15 11:17:13;;;;;;;0.90;0.77;;;29.70;37.60;;;;;;5075470;28;20021;-69
2021/05/15 11:19:49;;;;;;;5.60;1.27;;;29.50;38.30;;;;;;5074113;28;20066;-70
2021/05/15 11:22:15;;;;;;;7.47;1.92;;;29.40;38.20;;;;;;5083356;28;20112;-69
2021/05/15 11:24:50;;;;;;;18.65;6.05;;;29.30;39.00;;;;;;5075046;28;20028;-70
2021/05/15 11:27:17;;;;;;;18.00;6.20;;;29.10;37.70;;;;;;5075517;28;20028;-69
2021/05/15 11:29:43;;;;;;;59.83;42.97;;;28.60;38.20;;;;;;5091046;28;21001;-70
2021/05/15 11:32:10;;;;;;;9.02;1.77;;;28.30;39.50;;;;;;5075254;28;20037;-70
2021/05/15 11:34:36;;;;;;;7.20;1.58;;;28.00;39.40;;;;;;5073699;28;20020;-69
2021/05/15 11:37:03;;;;;;;3.28;0.90;;;27.70;39.30;;;;;;5087666;28;20032;-69
2021/05/15 11:39:28;;;;;;;8.13;1.85;;;27.30;39.10;;;;;;5074151;28;20035;-69
2021/05/15 11:42:11;;;;;;;3.08;1.23;;;27.10;39.60;;;;;;5075228;28;20386;-70
2021/05/15 11:44:41;;;;;;;4.43;1.30;;;27.00;39.90;;;;;;5084568;28;20111;-70
2021/05/15 11:47:10;;;;;;;41.90;11.32;;;26.80;40.30;;;;;;5090334;28;20025;-69
2021/05/15 11:49:38;;;;;;;1.80;0.80;;;26.70;40.70;;;;;;5095803;28;20065;-69
2021/05/15 11:52:06;;;;;;;1.48;1.05;;;26.70;40.70;;;;;;5094119;28;20032;-69
2021/05/15 11:54:33;;;;;;;5.28;1.35;;;26.50;40.70;;;;;;5086899;28;20429;-69
2021/05/15 11:57:01;;;;;;;4.07;1.40;;;26.50;41.20;;;;;;5088704;28;20047;-70
2021/05/15 11:59:28;;;;;;;28.35;8.10;;;26.50;41.70;;;;;;5090498;28;20028;-69
2021/05/15 12:01:55;;;;;;;9.45;1.73;;;26.70;42.10;;;;;;5087572;28;20032;-69
2021/05/15 12:04:25;;;;;;;15.98;3.25;;;26.80;41.30;;;;;;5094787;28;20024;-69
2021/05/15 12:06:58;;;;;;;3.17;1.08;;;26.80;41.20;;;;;;5085416;28;20043;-70
2021/05/15 12:09:28;;;;;;;13.00;4.35;;;26.50;40.80;;;;;;5092532;28;20514;-70
2021/05/15 12:12:01;;;;;;;13.73;3.25;;;26.40;41.60;;;;;;5094950;28;20035;-70
2021/05/15 12:14:27;;;;;;;12.35;2.40;;;26.50;41.50;;;;;;5088097;28;20056;-74
2021/05/15 12:16:54;;;;;;;33.40;7.03;;;26.70;42.20;;;;;;5086156;28;20013;-71
2021/05/15 12:19:22;;;;;;;7.43;2.63;;;27.00;41.50;;;;;;5078579;28;20429;-71
2021/05/15 12:22:08;;;;;;;20.20;6.20;;;27.10;41.00;;;;;;5079897;28;20020;-71
2021/05/15 12:24:33;;;;;;;;;;;27.30;41.20;;;;;;5075933;28;20032;-71
2021/05/15 12:27:20;;;;;;;6.97;1.83;;;27.50;40.80;;;;;;5073037;28;19905;-71
2021/05/15 12:29:57;;;;;;;43.92;11.55;;;27.40;40.20;;;;;;5072993;28;20526;-71
2021/05/15 12:32:30;;;;;;;13.80;3.45;;;27.60;40.40;;;;;;5073037;28;20024;-71
2021/05/15 12:35:00;;;;;;;21.95;5.13;;;27.70;39.70;;;;;;5075373;28;20025;-70
2021/05/15 12:37:33;;;;;;;11.45;2.20;;;27.60;40.30;;;;;;5088076;28;20044;-70
2021/05/15 12:40:17;;;;;;;4.75;1.13;;;27.60;40.10;;;;;;5087741;28;20027;-70
2021/05/15 12:42:42;;;;;;;6.25;2.20;;;27.60;39.80;;;;;;5085963;28;20371;-70
2021/05/15 12:45:16;;;;;;;46.50;10.10;;;27.60;39.80;;;;;;5072493;28;20036;-73
2021/05/15 12:47:43;;;;;;;13.82;2.35;;;27.60;39.80;;;;;;5072750;28;20481;-72